createdAt,value
2018-09-03T00:00:31.234Z,14.10
2018-09-03T00:02:59.550Z,14.30
2018-09-03T00:05:27.829Z,14.30
2018-09-03T00:07:56.080Z,14.30
2018-09-03T00:10:24.401Z,14.40
2018-09-03T00:12:52.621Z,14.40
2018-09-03T00:15:20.900Z,14.50
2018-09-03T00:17:49.176Z,14.60
2018-09-03T00:20:17.501Z,14.50
2018-09-03T00:22:45.778Z,14.40
2018-09-03T00:25:14.086Z,14.40
2018-09-03T00:27:42.348Z,14.30
2018-09-03T00:30:10.696Z,14.20
2018-09-03T00:32:44.349Z,14.10
2018-09-03T00:35:17.919Z,14.00
2018-09-03T00:37:51.445Z,14.10
2018-09-03T00:40:25.144Z,14.10
2018-09-03T00:42:58.682Z,14.00
2018-09-03T00:45:32.324Z,13.90
2018-09-03T00:48:00.595Z,13.80
2018-09-03T00:50:28.866Z,13.90
2018-09-03T00:52:57.149Z,14.00
2018-09-03T00:55:25.434Z,14.20
2018-09-03T00:57:53.712Z,14.40
2018-09-03T01:00:21.976Z,14.40
2018-09-03T01:02:50.265Z,14.50
2018-09-03T01:05:18.560Z,14.60
2018-09-03T01:07:46.840Z,14.50
2018-09-03T01:10:15.124Z,14.50
2018-09-03T01:12:43.468Z,14.50
2018-09-03T01:15:11.738Z,14.50
2018-09-03T01:17:39.997Z,14.50
2018-09-03T01:20:08.264Z,14.40
2018-09-03T01:22:36.555Z,14.30
2018-09-03T01:25:04.862Z,14.20
2018-09-03T01:27:33.149Z,14.10
2018-09-03T01:30:01.429Z,14.00
2018-09-03T01:32:29.702Z,13.80
2018-09-03T01:34:58.004Z,13.90
2018-09-03T01:37:26.314Z,14.00
2018-09-03T01:39:54.579Z,13.90
2018-09-03T01:42:22.840Z,14.00
2018-09-03T01:44:51.112Z,14.00
2018-09-03T01:47:19.420Z,13.70
2018-09-03T01:49:47.718Z,13.70
2018-09-03T01:52:15.992Z,13.60
2018-09-03T01:54:44.258Z,13.50
2018-09-03T01:57:12.524Z,13.50
2018-09-03T01:59:40.797Z,13.50
2018-09-03T02:02:09.072Z,13.40
2018-09-03T02:04:37.356Z,13.20
2018-09-03T02:07:05.645Z,13.00
2018-09-03T02:09:33.982Z,12.90
2018-09-03T02:12:02.296Z,13.10
2018-09-03T02:14:30.564Z,13.10
2018-09-03T02:16:58.865Z,13.00
2018-09-03T02:19:27.149Z,13.20
2018-09-03T02:21:55.420Z,13.10
2018-09-03T02:24:23.696Z,13.00
2018-09-03T02:26:52.003Z,13.20
2018-09-03T02:29:20.286Z,13.30
2018-09-03T02:31:48.574Z,13.20
2018-09-03T02:34:16.850Z,13.00
2018-09-03T02:36:45.164Z,13.10
2018-09-03T02:39:13.468Z,13.20
2018-09-03T02:41:41.765Z,13.10
2018-09-03T02:44:10.045Z,13.00
2018-09-03T02:46:38.314Z,12.90
2018-09-03T02:49:06.980Z,12.70
2018-09-03T02:51:35.261Z,12.60
2018-09-03T02:54:03.564Z,12.60
2018-09-03T02:56:31.869Z,12.70
2018-09-03T02:59:00.162Z,12.80
2018-09-03T03:01:28.425Z,12.90
2018-09-03T03:03:56.733Z,13.10
2018-09-03T03:06:25.009Z,13.30
2018-09-03T03:08:53.329Z,13.30
2018-09-03T03:11:21.590Z,13.30
2018-09-03T03:13:49.876Z,13.20
2018-09-03T03:16:18.157Z,13.20
2018-09-03T03:18:46.433Z,13.30
2018-09-03T03:21:14.707Z,13.40
2018-09-03T03:23:42.975Z,13.50
2018-09-03T03:26:11.255Z,13.60
2018-09-03T03:28:39.532Z,13.70
2018-09-03T03:31:07.827Z,13.70
2018-09-03T03:33:36.104Z,13.70
2018-09-03T03:36:04.405Z,13.70
2018-09-03T03:38:32.669Z,13.60
2018-09-03T03:41:00.936Z,13.60
2018-09-03T03:43:29.245Z,13.60
2018-09-03T03:45:58.400Z,13.80
2018-09-03T03:48:26.749Z,13.90
2018-09-03T03:50:54.996Z,14.00
2018-09-03T03:53:23.264Z,14.10
2018-09-03T03:55:51.540Z,14.00
2018-09-03T03:58:19.809Z,13.90
2018-09-03T04:00:48.096Z,14.00
2018-09-03T04:03:16.371Z,14.00
2018-09-03T04:05:44.781Z,14.10
2018-09-03T04:08:13.052Z,14.00
2018-09-03T04:10:41.308Z,14.10
2018-09-03T04:13:09.572Z,14.10
2018-09-03T04:15:37.859Z,14.30
2018-09-03T04:18:06.124Z,14.30
2018-09-03T04:20:34.397Z,14.30
2018-09-03T04:23:02.758Z,14.40
2018-09-03T04:25:30.991Z,14.30
2018-09-03T04:27:59.334Z,14.40
2018-09-03T04:30:27.648Z,14.40
2018-09-03T04:32:55.935Z,14.40
2018-09-03T04:35:24.233Z,14.50
2018-09-03T04:37:52.784Z,14.50
2018-09-03T04:40:21.154Z,14.40
2018-09-03T04:42:49.413Z,14.40
2018-09-03T04:45:17.690Z,14.50
2018-09-03T04:47:45.992Z,14.50
2018-09-03T04:50:14.302Z,14.40
2018-09-03T04:52:42.562Z,14.40
2018-09-03T04:55:10.852Z,14.30
2018-09-03T04:57:39.175Z,14.30
2018-09-03T05:00:07.729Z,14.30
2018-09-03T05:02:36.019Z,14.30
2018-09-03T05:05:04.401Z,14.30
2018-09-03T05:07:32.633Z,14.40
2018-09-03T05:10:00.908Z,14.50
2018-09-03T05:12:29.188Z,14.60
2018-09-03T05:14:57.512Z,14.50
2018-09-03T05:17:25.763Z,14.40
2018-09-03T05:19:54.045Z,14.30
2018-09-03T05:22:22.320Z,14.30
2018-09-03T05:24:50.595Z,14.30
2018-09-03T05:27:18.924Z,14.20
2018-09-03T05:29:47.238Z,14.10
2018-09-03T05:32:15.602Z,14.10
2018-09-03T05:34:44.002Z,14.10
2018-09-03T05:37:12.329Z,14.20
2018-09-03T05:39:40.592Z,14.20
2018-09-03T05:42:08.968Z,14.40
2018-09-03T05:44:37.252Z,14.40
2018-09-03T05:47:06.238Z,14.50
2018-09-03T05:49:34.592Z,14.60
2018-09-03T05:52:02.880Z,14.70
2018-09-03T05:54:31.231Z,14.80
2018-09-03T05:56:59.507Z,14.90
2018-09-03T05:59:27.784Z,14.90
2018-09-03T06:01:56.479Z,15.00
2018-09-03T06:04:24.796Z,15.10
2018-09-03T06:06:53.126Z,15.10
2018-09-03T06:09:21.394Z,15.20
2018-09-03T06:11:49.673Z,15.20
2018-09-03T06:14:17.957Z,15.30
2018-09-03T06:16:46.225Z,15.30
2018-09-03T06:19:14.501Z,15.40
2018-09-03T06:21:42.789Z,15.40
2018-09-03T06:24:11.145Z,15.30
2018-09-03T06:26:39.449Z,15.30
2018-09-03T06:29:07.768Z,15.30
2018-09-03T06:31:36.058Z,15.20
2018-09-03T06:34:04.344Z,15.10
2018-09-03T06:36:32.616Z,15.10
2018-09-03T06:39:00.956Z,15.30
2018-09-03T06:41:29.238Z,15.40
2018-09-03T06:43:57.509Z,15.40
2018-09-03T06:46:25.760Z,15.50
2018-09-03T06:48:54.030Z,15.60
2018-09-03T06:51:22.308Z,15.60
2018-09-03T06:53:50.625Z,15.70
2018-09-03T06:56:18.902Z,15.70
2018-09-03T06:58:47.245Z,15.90
2018-09-03T07:01:15.578Z,15.90
2018-09-03T07:03:44.221Z,16.00
2018-09-03T07:06:12.519Z,16.10
2018-09-03T07:08:40.990Z,16.20
2018-09-03T07:11:09.979Z,16.20
2018-09-03T07:13:38.240Z,16.40
2018-09-03T07:16:06.592Z,16.60
2018-09-03T07:18:34.864Z,16.80
2018-09-03T07:21:03.148Z,17.00
2018-09-03T07:23:31.420Z,17.10
2018-09-03T07:25:59.719Z,16.90
2018-09-03T07:28:28.020Z,16.80
2018-09-03T07:30:56.490Z,16.80
2018-09-03T07:33:24.764Z,17.00
2018-09-03T07:35:53.034Z,17.20
2018-09-03T07:38:21.312Z,17.40
2018-09-03T07:40:49.569Z,17.50
2018-09-03T07:43:17.880Z,17.60
2018-09-03T07:45:46.155Z,17.60
2018-09-03T07:48:14.434Z,17.60
2018-09-03T07:50:42.689Z,17.60
2018-09-03T07:53:10.999Z,17.60
2018-09-03T07:55:39.265Z,17.60
2018-09-03T07:58:07.992Z,17.70
2018-09-03T08:00:36.253Z,17.70
2018-09-03T08:03:04.530Z,17.80
2018-09-03T08:05:32.808Z,17.80
2018-09-03T08:08:01.068Z,17.90
2018-09-03T08:10:29.356Z,17.90
2018-09-03T08:12:57.695Z,17.90
2018-09-03T08:15:25.929Z,17.90
2018-09-03T08:17:54.204Z,17.80
2018-09-03T08:20:22.521Z,17.90
2018-09-03T08:22:50.798Z,17.90
2018-09-03T08:25:19.132Z,18.10
2018-09-03T08:27:47.397Z,18.10
2018-09-03T08:30:15.683Z,18.20
2018-09-03T08:32:43.957Z,18.30
2018-09-03T08:35:12.394Z,18.30
2018-09-03T08:37:40.677Z,18.40
2018-09-03T08:40:08.963Z,18.60
2018-09-03T08:42:37.233Z,18.70
2018-09-03T08:45:05.643Z,18.80
2018-09-03T08:47:33.975Z,18.90
2018-09-03T08:50:02.252Z,19.00
2018-09-03T08:52:30.537Z,19.20
2018-09-03T08:54:58.808Z,19.30
2018-09-03T08:57:27.105Z,19.50
2018-09-03T08:59:55.388Z,19.70
2018-09-03T09:02:23.673Z,19.80
2018-09-03T09:04:51.947Z,19.70
2018-09-03T09:07:20.237Z,19.70
2018-09-03T09:09:48.541Z,19.60
2018-09-03T09:12:16.851Z,19.50
2018-09-03T09:14:45.109Z,19.10
2018-09-03T09:17:13.405Z,18.90
2018-09-03T09:19:41.664Z,18.60
2018-09-03T09:22:09.940Z,18.50
2018-09-03T09:24:38.218Z,18.50
2018-09-03T09:27:06.508Z,18.50
2018-09-03T09:29:34.792Z,18.40
2018-09-03T09:32:03.092Z,18.40
2018-09-03T09:34:31.390Z,18.40
2018-09-03T09:36:59.819Z,18.50
2018-09-03T09:39:28.097Z,18.50
2018-09-03T09:41:56.385Z,18.50
2018-09-03T09:44:24.648Z,18.50
2018-09-03T09:46:52.940Z,18.60
2018-09-03T09:49:21.384Z,18.80
2018-09-03T09:51:49.652Z,18.90
2018-09-03T09:54:17.908Z,19.10
2018-09-03T09:56:46.199Z,19.00
2018-09-03T09:59:14.480Z,19.00
2018-09-03T10:01:42.745Z,19.20
2018-09-03T10:04:11.112Z,19.20
2018-09-03T10:06:39.374Z,19.10
2018-09-03T10:09:08.221Z,19.10
2018-09-03T10:11:36.473Z,19.10
2018-09-03T10:14:04.768Z,19.20
2018-09-03T10:16:33.044Z,19.20
2018-09-03T10:19:01.294Z,19.20
2018-09-03T10:21:29.556Z,19.30
2018-09-03T10:23:57.841Z,19.30
2018-09-03T10:26:26.129Z,19.30
2018-09-03T10:28:54.457Z,19.30
2018-09-03T10:31:22.704Z,19.30
2018-09-03T10:33:50.968Z,19.20
2018-09-03T10:36:19.268Z,19.10
2018-09-03T10:38:47.573Z,19.10
2018-09-03T10:41:15.831Z,19.10
2018-09-03T10:43:44.133Z,19.20
2018-09-03T10:46:12.479Z,19.20
2018-09-03T10:48:40.788Z,19.20
2018-09-03T10:51:09.053Z,19.30
2018-09-03T10:53:37.334Z,19.50
2018-09-03T10:56:05.827Z,19.60
2018-09-03T10:58:34.106Z,19.70
2018-09-03T11:01:02.365Z,19.80
2018-09-03T11:03:30.634Z,19.80
2018-09-03T11:05:58.901Z,19.90
2018-09-03T11:08:27.168Z,20.10
2018-09-03T11:10:55.439Z,20.20
2018-09-03T11:13:23.710Z,20.40
2018-09-03T11:15:51.989Z,20.50
2018-09-03T11:18:20.273Z,20.60
2018-09-03T11:20:48.561Z,20.60
2018-09-03T11:23:16.898Z,20.70
2018-09-03T11:25:45.204Z,20.70
2018-09-03T11:28:13.492Z,20.60
2018-09-03T11:30:41.786Z,20.70
2018-09-03T11:33:10.073Z,20.70
2018-09-03T11:35:38.349Z,20.70
2018-09-03T11:38:06.644Z,20.70
2018-09-03T11:40:34.920Z,20.60
2018-09-03T11:43:03.201Z,20.60
2018-09-03T11:45:31.471Z,20.60
2018-09-03T11:47:59.746Z,20.50
2018-09-03T11:50:28.018Z,20.50
2018-09-03T11:52:56.280Z,20.40
2018-09-03T11:55:24.568Z,20.30
2018-09-03T11:57:52.867Z,20.50
2018-09-03T12:00:24.502Z,20.40
2018-09-03T12:02:52.724Z,20.50
2018-09-03T12:05:20.983Z,20.60
2018-09-03T12:07:49.321Z,20.80
2018-09-03T12:10:17.580Z,21.00
2018-09-03T12:12:45.872Z,21.10
2018-09-03T12:15:19.333Z,21.20
2018-09-03T12:17:47.621Z,21.30
2018-09-03T12:20:15.882Z,21.20
2018-09-03T12:22:44.165Z,21.20
2018-09-03T12:25:12.437Z,21.20
2018-09-03T12:27:40.746Z,21.00
2018-09-03T12:30:09.005Z,20.90
2018-09-03T12:32:37.484Z,20.80
2018-09-03T12:35:06.041Z,20.80
2018-09-03T12:37:34.313Z,20.70
2018-09-03T12:40:02.610Z,20.50
2018-09-03T12:42:31.148Z,20.30
2018-09-03T12:44:59.425Z,20.10
2018-09-03T12:47:27.689Z,19.90
2018-09-03T12:49:55.982Z,19.90
2018-09-03T12:52:24.349Z,19.80
2018-09-03T12:54:52.627Z,19.60
2018-09-03T12:57:21.277Z,19.50
2018-09-03T12:59:49.550Z,19.50
2018-09-03T13:02:17.816Z,19.50
2018-09-03T13:04:46.081Z,19.40
2018-09-03T13:07:14.352Z,19.40
2018-09-03T13:09:42.633Z,19.40
2018-09-03T13:12:10.893Z,19.50
2018-09-03T13:14:39.162Z,19.60
2018-09-03T13:17:07.420Z,19.60
2018-09-03T13:19:35.718Z,19.80
2018-09-03T13:22:04.020Z,20.00
2018-09-03T13:24:32.293Z,20.20
2018-09-03T13:27:00.821Z,20.40
2018-09-03T13:29:29.078Z,20.70
2018-09-03T13:31:57.336Z,21.00
2018-09-03T13:34:32.644Z,21.20
2018-09-03T13:37:00.928Z,21.30
2018-09-03T13:39:29.188Z,21.30
2018-09-03T13:41:57.481Z,21.30
2018-09-03T13:44:25.729Z,21.40
2018-09-03T13:46:54.000Z,21.50
2018-09-03T13:49:22.267Z,21.60
2018-09-03T13:51:50.543Z,21.60
2018-09-03T13:54:18.805Z,21.60
2018-09-03T13:56:47.081Z,21.70
2018-09-03T13:59:15.347Z,21.60
2018-09-03T14:01:43.629Z,21.60
2018-09-03T14:04:11.900Z,21.70
2018-09-03T14:06:40.153Z,21.70
2018-09-03T14:09:08.784Z,21.70
2018-09-03T14:11:37.138Z,21.80
2018-09-03T14:14:05.409Z,22.00
2018-09-03T14:16:33.850Z,22.00
2018-09-03T14:19:02.201Z,22.00
2018-09-03T14:21:30.493Z,22.00
2018-09-03T14:23:58.777Z,21.90
2018-09-03T14:26:27.165Z,21.90
2018-09-03T14:28:55.456Z,22.00
2018-09-03T14:31:23.909Z,21.80
2018-09-03T14:33:52.328Z,21.70
2018-09-03T14:36:20.597Z,21.60
2018-09-03T14:38:48.884Z,21.70
2018-09-03T14:41:17.171Z,21.60
2018-09-03T14:43:45.767Z,21.50
2018-09-03T14:46:14.073Z,21.50
2018-09-03T14:48:42.357Z,21.50
2018-09-03T14:51:10.639Z,21.60
2018-09-03T14:53:39.045Z,21.80
2018-09-03T14:56:07.374Z,21.90
2018-09-03T14:58:35.574Z,21.70
2018-09-03T15:01:03.856Z,21.70
2018-09-03T15:03:32.483Z,21.60
2018-09-03T15:06:00.753Z,21.60
2018-09-03T15:08:29.101Z,21.60
2018-09-03T15:10:57.297Z,21.60
2018-09-03T15:13:25.552Z,21.60
2018-09-03T15:15:53.835Z,21.60
2018-09-03T15:18:22.101Z,21.40
2018-09-03T15:20:50.376Z,21.20
2018-09-03T15:23:18.647Z,21.10
2018-09-03T15:25:46.913Z,21.00
2018-09-03T15:28:15.185Z,20.90
2018-09-03T15:30:43.460Z,20.70
2018-09-03T15:33:11.724Z,20.50
2018-09-03T15:35:39.987Z,20.50
2018-09-03T15:38:08.243Z,20.40
2018-09-03T15:40:36.508Z,20.40
2018-09-03T15:43:04.826Z,20.30
2018-09-03T15:45:33.064Z,20.20
2018-09-03T15:48:01.372Z,20.00
2018-09-03T15:50:29.698Z,20.00
2018-09-03T15:52:57.972Z,20.00
2018-09-03T15:55:26.236Z,20.00
2018-09-03T15:57:54.521Z,19.90
2018-09-03T16:00:22.783Z,19.80
2018-09-03T16:02:51.072Z,19.70
2018-09-03T16:05:19.367Z,19.60
2018-09-03T16:07:47.629Z,19.60
2018-09-03T16:10:15.912Z,19.60
2018-09-03T16:12:44.196Z,19.50
2018-09-03T16:15:12.586Z,19.50
2018-09-03T16:17:40.845Z,19.40
2018-09-03T16:20:09.133Z,19.40
2018-09-03T16:22:37.399Z,19.30
2018-09-03T16:25:05.990Z,19.40
2018-09-03T16:27:34.353Z,19.40
2018-09-03T16:30:02.556Z,19.50
2018-09-03T16:32:30.825Z,19.60
2018-09-03T16:34:59.129Z,19.70
2018-09-03T16:37:27.401Z,19.70
2018-09-03T16:39:55.668Z,19.60
2018-09-03T16:42:23.965Z,19.70
2018-09-03T16:44:52.240Z,19.60
2018-09-03T16:47:20.522Z,19.50
2018-09-03T16:49:48.798Z,19.50
2018-09-03T16:52:17.068Z,19.40
2018-09-03T16:54:45.339Z,19.30
2018-09-03T16:57:13.606Z,19.20
2018-09-03T16:59:41.885Z,19.10
2018-09-03T17:02:10.171Z,19.00
2018-09-03T17:04:38.456Z,18.90
2018-09-03T17:07:06.958Z,18.90
2018-09-03T17:09:35.525Z,18.80
2018-09-03T17:12:03.788Z,18.70
2018-09-03T17:14:32.223Z,18.60
2018-09-03T17:17:00.486Z,18.60
2018-09-03T17:19:28.756Z,18.50
2018-09-03T17:21:57.028Z,18.50
2018-09-03T17:24:25.312Z,18.50
2018-09-03T17:26:53.596Z,18.50
2018-09-03T17:29:21.890Z,18.50
2018-09-03T17:31:50.175Z,18.40
2018-09-03T17:34:18.450Z,18.40
2018-09-03T17:36:46.713Z,18.30
2018-09-03T17:39:14.987Z,18.30
2018-09-03T17:41:43.255Z,18.10
2018-09-03T17:44:11.525Z,18.10
2018-09-03T17:46:39.805Z,18.00
2018-09-03T17:49:08.089Z,18.00
2018-09-03T17:51:36.345Z,17.90
2018-09-03T17:54:04.622Z,17.80
2018-09-03T17:56:32.902Z,17.80
2018-09-03T17:59:01.224Z,17.80
2018-09-03T18:01:29.535Z,17.80
2018-09-03T18:03:57.860Z,17.80
2018-09-03T18:06:26.144Z,17.80
2018-09-03T18:08:54.396Z,17.80
2018-09-03T18:11:22.673Z,17.80
2018-09-03T18:13:50.952Z,17.70
2018-09-03T18:16:19.365Z,17.70
2018-09-03T18:18:47.624Z,17.60
2018-09-03T18:21:15.888Z,17.60
2018-09-03T18:23:44.153Z,17.60
2018-09-03T18:26:12.416Z,17.60
2018-09-03T18:28:40.684Z,17.50
2018-09-03T18:31:08.945Z,17.60
2018-09-03T18:33:37.225Z,17.60
2018-09-03T18:36:05.758Z,17.60
2018-09-03T18:38:33.958Z,17.70
2018-09-03T18:41:02.217Z,17.70
2018-09-03T18:43:30.564Z,17.70
2018-09-03T18:45:58.836Z,17.60
2018-09-03T18:48:27.131Z,17.60
2018-09-03T18:50:55.414Z,17.60
2018-09-03T18:53:23.738Z,17.60
2018-09-03T18:55:51.956Z,17.60
2018-09-03T18:58:20.237Z,17.60
2018-09-03T19:00:48.521Z,17.60
2018-09-03T19:03:16.788Z,17.60
2018-09-03T19:05:45.070Z,17.50
2018-09-03T19:08:13.336Z,17.50
2018-09-03T19:10:41.618Z,17.40
2018-09-03T19:13:09.888Z,17.40
2018-09-03T19:15:38.152Z,17.40
2018-09-03T19:18:06.424Z,17.50
2018-09-03T19:20:34.689Z,17.40
2018-09-03T19:23:02.969Z,17.40
2018-09-03T19:25:31.253Z,17.40
2018-09-03T19:27:59.541Z,17.40
2018-09-03T19:30:27.841Z,17.30
2018-09-03T19:32:56.113Z,17.30
2018-09-03T19:35:24.388Z,17.30
2018-09-03T19:37:52.681Z,17.30
2018-09-03T19:40:21.045Z,17.30
2018-09-03T19:42:49.320Z,17.20
2018-09-03T19:45:17.634Z,17.20
2018-09-03T19:47:45.904Z,17.20
2018-09-03T19:50:14.184Z,17.20
2018-09-03T19:52:42.456Z,17.20
2018-09-03T19:55:10.739Z,17.20
2018-09-03T19:57:39.001Z,17.20
2018-09-03T20:00:07.371Z,17.10
2018-09-03T20:02:35.632Z,17.10
2018-09-03T20:05:03.904Z,17.00
2018-09-03T20:07:32.214Z,17.00
2018-09-03T20:10:00.487Z,17.00
2018-09-03T20:12:28.802Z,17.00
2018-09-03T20:14:57.113Z,16.90
2018-09-03T20:17:25.408Z,16.90
2018-09-03T20:19:53.971Z,16.90
2018-09-03T20:22:22.237Z,16.90
2018-09-03T20:24:50.500Z,16.90
2018-09-03T20:27:18.788Z,16.90
2018-09-03T20:29:47.090Z,16.90
2018-09-03T20:32:15.381Z,16.90
2018-09-03T20:34:43.696Z,16.90
2018-09-03T20:37:11.967Z,17.00
2018-09-03T20:39:40.251Z,17.00
2018-09-03T20:42:08.874Z,17.00
2018-09-03T20:44:37.193Z,17.00
2018-09-03T20:47:05.505Z,17.00
2018-09-03T20:49:33.794Z,17.00
2018-09-03T20:52:02.077Z,17.00
2018-09-03T20:54:30.397Z,17.00
2018-09-03T20:56:58.668Z,16.90
2018-09-03T20:59:26.983Z,16.90
2018-09-03T21:01:55.226Z,16.90
2018-09-03T21:04:23.498Z,16.90
2018-09-03T21:06:51.794Z,17.00
2018-09-03T21:09:20.086Z,16.90
2018-09-03T21:11:48.368Z,16.90
2018-09-03T21:14:16.652Z,16.90
2018-09-03T21:16:44.921Z,16.80
2018-09-03T21:19:13.199Z,16.80
2018-09-03T21:21:41.511Z,16.70
2018-09-03T21:24:09.795Z,16.70
2018-09-03T21:26:38.084Z,16.70
2018-09-03T21:29:06.387Z,16.60
2018-09-03T21:31:34.662Z,16.60
2018-09-03T21:34:02.948Z,16.60
2018-09-03T21:36:31.225Z,16.60
2018-09-03T21:38:59.540Z,16.50
2018-09-03T21:41:27.834Z,16.50
2018-09-03T21:43:56.112Z,16.50
2018-09-03T21:46:24.393Z,16.50
2018-09-03T21:48:52.673Z,16.50
2018-09-03T21:51:20.997Z,16.50
2018-09-03T21:53:49.277Z,16.50
2018-09-03T21:56:17.545Z,16.40
2018-09-03T21:58:45.830Z,16.40
2018-09-03T22:01:14.125Z,16.40
2018-09-03T22:03:42.406Z,16.40
2018-09-03T22:06:10.713Z,16.30
2018-09-03T22:08:39.058Z,16.30
2018-09-03T22:11:07.286Z,16.30
2018-09-03T22:13:35.564Z,16.30
2018-09-03T22:16:03.892Z,16.40
2018-09-03T22:18:32.583Z,16.40
2018-09-03T22:21:00.876Z,16.50
2018-09-03T22:23:29.148Z,16.50
2018-09-03T22:25:57.443Z,16.50
2018-09-03T22:28:25.739Z,16.50
2018-09-03T22:30:53.997Z,16.50
2018-09-03T22:33:22.273Z,16.50
2018-09-03T22:35:50.584Z,16.50
2018-09-03T22:38:18.871Z,16.50
2018-09-03T22:40:47.157Z,16.40
2018-09-03T22:43:15.432Z,16.40
2018-09-03T22:45:43.752Z,16.30
2018-09-03T22:48:12.030Z,16.30
2018-09-03T22:50:40.324Z,16.30
2018-09-03T22:53:08.626Z,16.40
2018-09-03T22:55:36.897Z,16.40
2018-09-03T22:58:05.196Z,16.40
2018-09-03T23:00:33.476Z,16.40
2018-09-03T23:03:01.744Z,16.40
2018-09-03T23:05:30.033Z,16.40
2018-09-03T23:07:58.296Z,16.40
2018-09-03T23:10:26.573Z,16.40
2018-09-03T23:12:56.260Z,16.40
2018-09-03T23:15:24.553Z,16.40
2018-09-03T23:17:52.824Z,16.40
2018-09-03T23:20:21.096Z,16.40
2018-09-03T23:22:49.384Z,16.40
2018-09-03T23:25:17.661Z,16.40
2018-09-03T23:27:45.957Z,16.40
2018-09-03T23:30:14.261Z,16.40
2018-09-03T23:32:42.525Z,16.40
2018-09-03T23:35:10.797Z,16.50
2018-09-03T23:37:39.069Z,16.50
2018-09-03T23:40:07.365Z,16.50
2018-09-03T23:42:35.644Z,16.40
2018-09-03T23:45:03.936Z,16.40
2018-09-03T23:47:32.213Z,16.40
2018-09-03T23:50:00.501Z,16.40
2018-09-03T23:52:28.760Z,16.40
2018-09-03T23:54:57.044Z,16.40
2018-09-03T23:57:25.335Z,16.40
2018-09-03T23:59:53.600Z,16.40
